Meniu

AB meteo

EYSA 55 53 38N 023 23 42E

Hello!

Welcome to AB meteo!
Here you can find links to actual weather data and weather forecast.

Posted by moose 2009 January 13 Tuesday 23:40:26

METAR

679417664 4 EYSA 171250Z 24010KT 9999 FEW036 BKN042 22/13 Q1020 BLU NOSIG

TAF

678073412 9 TAF EYSA 171111Z 1712/1721 24012KT 9000 SCT030 TEMPO 1712/1715 SCT020CB